FWV98 LSZH-LEAL
Flight info
| Callsign | FWV98 |
|---|---|
| Flight time | N/A |
| Altitude | 33000 |
| Route | VEBIT T50 ROTOS Z669 ULMES DCT VADAR DCT GEVEA DCT INCUS DCT BALSI/N0486F410 DCT RETNO DCT TUPOX DCT MTG DCT DIVKO DCT VATIR DCT PIVUS DCT SULID DCT SISMO DCT AKAMU DCT ADX DCT OKITI DCT IBEBA M603 GERVU |
| Aircraft | A359/H-SDE2E3GHIJ3J4J5LM1ORWXY/LB1D1 |
Departure
| Time | 2026-05-05 19:13 |
|---|---|
| Airport | Zürich Airport (LSZH) |
Arrival
| Time | N/A |
|---|---|
| Airport | Alicante-Elche Miguel Hernández Airport (LEAL) |
| Time | Latitude | Longitude | Altitude | Speed | Heading |
|---|---|---|---|---|---|
| 2026-05-05 18:30 | 47.46039 | 8.55736 | 1409 ft | 0 kts | 6° |
| 2026-05-05 19:00 | 47.46037 | 8.55736 | 1409 ft | 2 kts | 6° |
| 2026-05-05 19:00 | 47.46012 | 8.55732 | 1412 ft | 4 kts | 6° |
| 2026-05-05 19:00 | 47.45986 | 8.55727 | 1414 ft | 4 kts | 11° |
| 2026-05-05 19:00 | 47.45964 | 8.55719 | 1413 ft | 4 kts | 34° |
| 2026-05-05 19:01 | 47.45950 | 8.55691 | 1416 ft | 4 kts | 86° |
| 2026-05-05 19:01 | 47.45953 | 8.55652 | 1411 ft | 4 kts | 102° |
| 2026-05-05 19:01 | 47.45957 | 8.55622 | 1408 ft | 0 kts | 96° |
| 2026-05-05 19:06 | 47.45952 | 8.55701 | 1417 ft | 14 kts | 92° |
| 2026-05-05 19:06 | 47.45942 | 8.55840 | 1411 ft | 13 kts | 95° |
| 2026-05-05 19:07 | 47.45933 | 8.55974 | 1419 ft | 13 kts | 96° |
| 2026-05-05 19:07 | 47.45924 | 8.56107 | 1417 ft | 13 kts | 96° |
| 2026-05-05 19:07 | 47.45915 | 8.56227 | 1418 ft | 11 kts | 96° |
| 2026-05-05 19:08 | 47.45912 | 8.56264 | 1419 ft | 0 kts | 96° |
| 2026-05-05 19:08 | 47.45916 | 8.56275 | 1425 ft | 5 kts | 66° |
| 2026-05-05 19:09 | 47.46004 | 8.56320 | 1419 ft | 14 kts | 9° |
| 2026-05-05 19:09 | 47.46016 | 8.56323 | 1422 ft | 0 kts | 9° |
| 2026-05-05 19:10 | 47.46018 | 8.56324 | 1422 ft | 4 kts | 9° |
| 2026-05-05 19:10 | 47.46085 | 8.56366 | 1425 ft | 13 kts | 36° |
| 2026-05-05 19:11 | 47.46160 | 8.56400 | 1420 ft | 9 kts | 338° |
| 2026-05-05 19:11 | 47.46205 | 8.56342 | 1421 ft | 0 kts | 317° |
| 2026-05-05 19:12 | 47.46212 | 8.56333 | 1420 ft | 10 kts | 316° |
| 2026-05-05 19:12 | 47.46457 | 8.55997 | 1414 ft | 84 kts | 317° |
| 2026-05-05 19:12 | 47.47042 | 8.55199 | 1405 ft | 143 kts | 316° |
| 2026-05-05 19:13 | 47.47880 | 8.54076 | 1601 ft | 173 kts | 319° |
| 2026-05-05 19:13 | 47.48881 | 8.53026 | 2353 ft | 172 kts | 326° |
| 2026-05-05 19:13 | 47.49882 | 8.52014 | 2981 ft | 184 kts | 319° |
| 2026-05-05 19:13 | 47.50836 | 8.50624 | 3408 ft | 200 kts | 303° |
| 2026-05-05 19:14 | 47.51472 | 8.48804 | 4070 ft | 198 kts | 285° |
| 2026-05-05 19:14 | 47.51708 | 8.46800 | 4759 ft | 199 kts | 271° |
| 2026-05-05 19:14 | 47.51752 | 8.44743 | 5466 ft | 201 kts | 269° |
| 2026-05-05 19:14 | 47.51770 | 8.42685 | 6189 ft | 203 kts | 267° |
| 2026-05-05 19:15 | 47.51542 | 8.40640 | 6907 ft | 203 kts | 249° |
| 2026-05-05 19:15 | 47.50740 | 8.38918 | 7562 ft | 211 kts | 224° |
| 2026-05-05 19:15 | 47.49385 | 8.37857 | 7995 ft | 237 kts | 199° |
| 2026-05-05 19:15 | 47.47696 | 8.37287 | 8485 ft | 257 kts | 194° |
| 2026-05-05 19:16 | 47.45923 | 8.36771 | 9327 ft | 262 kts | 194° |
| 2026-05-05 19:16 | 47.44122 | 8.36223 | 10206 ft | 267 kts | 194° |
| 2026-05-05 19:16 | 47.42237 | 8.35627 | 10646 ft | 288 kts | 194° |
| 2026-05-05 19:16 | 47.40259 | 8.34720 | 11009 ft | 307 kts | 207° |
| 2026-05-05 19:17 | 47.38514 | 8.32809 | 11512 ft | 322 kts | 228° |
| 2026-05-05 19:17 | 47.37259 | 8.30024 | 11811 ft | 328 kts | 240° |
| 2026-05-05 19:17 | 47.36218 | 8.27042 | 11905 ft | 327 kts | 242° |
| 2026-05-05 19:17 | 47.35190 | 8.24062 | 11907 ft | 327 kts | 242° |
| 2026-05-05 19:18 | 47.34150 | 8.21071 | 12028 ft | 328 kts | 242° |
| 2026-05-05 19:18 | 47.33089 | 8.18063 | 12630 ft | 332 kts | 242° |
| 2026-05-05 19:18 | 47.32021 | 8.15054 | 13571 ft | 333 kts | 242° |
| 2026-05-05 19:18 | 47.30943 | 8.12008 | 14312 ft | 338 kts | 242° |
| 2026-05-05 19:19 | 47.29888 | 8.09036 | 14969 ft | 343 kts | 242° |